Time;durP1;ratioP1;P1;durP2;ratioP2;P2;SDS_P1;SDS_P2;PMS_P1;PMS_P2;Temp;Humidity;BMP_temperature;BMP_pressure;BME280_temperature;BME280_humidity;BME280_pressure;Samples;Min_cycle;Max_cycle;Signal;HPM_P1;HPM_P2
2021/08/14 00:01:07;;;;;;;6.60;6.00;;;20.90;99.90;;;;;;5034001;28;20287;-69
2021/08/14 00:03:33;;;;;;;8.33;6.30;;;20.90;99.90;;;;;;5034260;28;20205;-68
2021/08/14 00:05:58;;;;;;;7.30;6.60;;;20.80;99.90;;;;;;5033988;28;20172;-67
2021/08/14 00:08:24;;;;;;;5.63;5.13;;;20.80;99.90;;;;;;5034133;28;20297;-67
2021/08/14 00:10:50;;;;;;;7.90;6.27;;;20.70;99.90;;;;;;5033079;28;20508;-67
2021/08/14 00:13:15;;;;;;;6.07;5.57;;;20.70;99.90;;;;;;5034015;28;20551;-68
2021/08/14 00:15:41;;;;;;;7.30;5.87;;;20.70;99.90;;;;;;5033759;28;20169;-69
2021/08/14 00:18:07;;;;;;;7.43;4.97;;;20.70;99.90;;;;;;5034059;28;20181;-69
2021/08/14 00:20:38;;;;;;;6.40;5.20;;;20.70;99.90;;;;;;5033699;28;20548;-68
2021/08/14 00:23:04;;;;;;;6.10;5.60;;;20.60;99.90;;;;;;5016347;28;20185;-68
2021/08/14 00:25:29;;;;;;;9.07;5.37;;;20.60;99.90;;;;;;5040350;28;20416;-68
2021/08/14 00:27:55;;;;;;;6.60;5.20;;;20.60;99.90;;;;;;5053305;28;20203;-69
2021/08/14 00:30:21;;;;;;;7.53;5.40;;;20.50;99.90;;;;;;5046386;28;20173;-68
2021/08/14 00:32:47;;;;;;;7.33;4.80;;;20.50;99.90;;;;;;5043268;28;20189;-68
2021/08/14 00:35:12;;;;;;;5.83;5.23;;;20.40;99.90;;;;;;5053408;28;20405;-68
2021/08/14 00:37:38;;;;;;;6.33;5.60;;;20.40;99.90;;;;;;5052219;28;20552;-69
2021/08/14 00:40:05;;;;;;;7.27;6.33;;;20.40;99.90;;;;;;5033376;28;20175;-68
2021/08/14 00:42:30;;;;;;;6.20;5.30;;;20.40;99.90;;;;;;5033128;28;20230;-69
2021/08/14 00:44:58;;;;;;;5.30;4.80;;;20.30;99.90;;;;;;5049773;28;20453;-69
2021/08/14 00:47:25;;;;;;;5.10;4.60;;;20.30;99.90;;;;;;5051111;28;20319;-68
2021/08/14 00:49:51;;;;;;;5.53;4.53;;;20.30;99.90;;;;;;5053329;28;20504;-70
2021/08/14 00:52:17;;;;;;;5.47;4.97;;;20.20;99.90;;;;;;5053138;28;20426;-69
2021/08/14 00:54:42;;;;;;;8.03;4.30;;;20.20;99.90;;;;;;5052870;28;20426;-69
2021/08/14 00:57:07;;;;;;;5.27;4.77;;;20.10;99.90;;;;;;5053215;28;20509;-69
2021/08/14 00:59:33;;;;;;;5.77;5.13;;;20.10;99.90;;;;;;5051365;28;20222;-69
2021/08/14 01:02:03;;;;;;;5.67;5.17;;;20.00;99.90;;;;;;5047782;28;20691;-69
2021/08/14 01:04:29;;;;;;;6.93;5.03;;;20.00;99.90;;;;;;5049432;28;20196;-68
2021/08/14 01:06:55;;;;;;;4.80;4.33;;;19.90;99.90;;;;;;5052608;28;20884;-68
2021/08/14 01:09:21;;;;;;;5.57;5.10;;;19.90;99.90;;;;;;5052592;28;20498;-68
2021/08/14 01:11:48;;;;;;;5.87;5.37;;;19.80;99.90;;;;;;5052546;28;20195;-68
2021/08/14 01:14:13;;;;;;;6.10;5.20;;;19.80;99.90;;;;;;5052625;28;20733;-69
2021/08/14 01:16:39;;;;;;;5.30;4.73;;;19.70;99.90;;;;;;5052497;28;20427;-69
2021/08/14 01:19:07;;;;;;;6.50;5.33;;;19.70;99.90;;;;;;5052574;28;20177;-68
2021/08/14 01:21:32;;;;;;;6.20;5.60;;;19.60;99.90;;;;;;5051271;28;20434;-67
2021/08/14 01:23:58;;;;;;;7.73;5.80;;;19.50;99.90;;;;;;5052493;28;20462;-68
2021/08/14 01:26:24;;;;;;;9.50;6.10;;;19.50;99.90;;;;;;5052350;28;20160;-69
2021/08/14 01:28:50;;;;;;;6.83;5.63;;;19.40;99.90;;;;;;5042761;28;20293;-68
2021/08/14 01:31:16;;;;;;;9.43;5.90;;;19.30;99.90;;;;;;5032126;28;20513;-68
2021/08/14 01:33:43;;;;;;;6.70;6.10;;;19.30;99.90;;;;;;5032162;28;20400;-68
2021/08/14 01:36:14;;;;;;;8.63;6.30;;;19.20;99.90;;;;;;5032422;28;20497;-67
2021/08/14 01:39:00;;;;;;;8.23;5.70;;;19.20;99.90;;;;;;5040827;28;20916;-68
2021/08/14 01:41:27;;;;;;;9.03;5.73;;;19.10;99.90;;;;;;5052008;28;20480;-68
2021/08/14 01:44:04;;;;;;;6.90;5.50;;;19.00;99.90;;;;;;5051962;28;20412;-68
2021/08/14 01:46:41;;;;;;;8.00;6.30;;;18.90;99.90;;;;;;5052834;28;20821;-68
2021/08/14 01:49:06;;;;;;;6.47;5.40;;;18.90;99.90;;;;;;5051722;28;20509;-68
2021/08/14 01:51:32;;;;;;;7.10;6.10;;;18.80;99.90;;;;;;5051952;28;20812;-68
2021/08/14 01:53:59;;;;;;;7.33;5.63;;;18.80;99.90;;;;;;5051562;28;20184;-67
2021/08/14 01:56:27;;;;;;;6.50;5.43;;;18.80;99.90;;;;;;5052119;28;20186;-69
2021/08/14 01:58:53;;;;;;;9.10;5.60;;;18.70;99.90;;;;;;5052070;28;20504;-69
2021/08/14 02:01:19;;;;;;;7.33;6.53;;;18.70;99.90;;;;;;5052141;28;20426;-69
2021/08/14 02:03:46;;;;;;;5.90;5.07;;;18.70;99.90;;;;;;5051419;28;20440;-70
2021/08/14 02:06:12;;;;;;;6.60;4.83;;;18.60;99.90;;;;;;5051770;28;20167;-70
2021/08/14 02:08:39;;;;;;;11.40;5.20;;;18.60;99.90;;;;;;5051097;28;20483;-69
2021/08/14 02:11:21;;;;;;;14.40;6.10;;;18.60;99.90;;;;;;5051521;28;20433;-69
2021/08/14 02:13:49;;;;;;;7.23;4.90;;;18.50;99.90;;;;;;5051383;28;20171;-69
2021/08/14 02:16:15;;;;;;;7.57;5.30;;;18.50;99.90;;;;;;5051549;28;20406;-70
2021/08/14 02:18:40;;;;;;;7.40;5.40;;;18.40;99.90;;;;;;5051552;28;20757;-69
2021/08/14 02:21:08;;;;;;;7.10;4.70;;;18.40;99.90;;;;;;5051213;28;20458;-68
2021/08/14 02:23:34;;;;;;;7.47;5.37;;;18.30;99.90;;;;;;5051252;28;20190;-69
2021/08/14 02:25:59;;;;;;;6.80;6.07;;;18.30;99.90;;;;;;5051244;28;20467;-69
2021/08/14 02:28:26;;;;;;;9.70;5.40;;;18.30;99.90;;;;;;5051325;28;20872;-69
2021/08/14 02:30:51;;;;;;;9.03;6.20;;;18.30;99.90;;;;;;5051145;28;20561;-69
2021/08/14 02:33:17;;;;;;;14.03;6.97;;;18.40;99.90;;;;;;5050866;28;20409;-69
2021/08/14 02:35:42;;;;;;;8.93;6.50;;;18.50;99.90;;;;;;5051201;28;20247;-69
2021/08/14 02:38:08;;;;;;;6.87;5.50;;;18.50;99.90;;;;;;5051163;28;20238;-69
2021/08/14 02:40:34;;;;;;;10.30;6.90;;;18.50;99.90;;;;;;5051118;28;20542;-69
2021/08/14 02:43:01;;;;;;;10.00;4.43;;;18.50;99.90;;;;;;5050666;28;20198;-68
2021/08/14 02:45:26;;;;;;;6.10;5.10;;;18.60;99.90;;;;;;5051185;28;20445;-69
2021/08/14 02:47:55;;;;;;;6.90;5.87;;;18.60;99.90;;;;;;5050757;28;20465;-69
2021/08/14 02:50:22;;;;;;;7.73;5.33;;;18.60;99.90;;;;;;5051011;28;20181;-69
2021/08/14 02:52:47;;;;;;;6.33;5.73;;;18.50;99.90;;;;;;5050558;28;20431;-69
2021/08/14 02:55:13;;;;;;;6.83;5.03;;;18.50;99.90;;;;;;5049924;28;20410;-69
2021/08/14 02:57:38;;;;;;;9.97;5.40;;;18.50;99.90;;;;;;5050857;28;20173;-69
2021/08/14 03:00:05;;;;;;;5.90;5.30;;;18.50;99.90;;;;;;5049666;28;20186;-69
2021/08/14 03:02:30;;;;;;;8.47;5.57;;;18.50;99.90;;;;;;5050348;28;20202;-69
2021/08/14 03:04:56;;;;;;;7.23;4.40;;;18.50;99.90;;;;;;5050833;28;20759;-69
2021/08/14 03:07:21;;;;;;;5.80;5.03;;;18.50;99.90;;;;;;5050669;28;20254;-69
2021/08/14 03:09:47;;;;;;;6.90;5.17;;;18.50;99.90;;;;;;5050984;28;20170;-68
2021/08/14 03:12:12;;;;;;;6.60;4.93;;;18.50;99.90;;;;;;5050727;28;20220;-70
2021/08/14 03:14:38;;;;;;;5.90;5.30;;;18.50;99.90;;;;;;5050638;28;20175;-70
2021/08/14 03:17:05;;;;;;;5.97;4.90;;;18.50;99.90;;;;;;5050744;28;20162;-68
2021/08/14 03:19:31;;;;;;;8.70;5.40;;;18.50;99.90;;;;;;5050468;28;20178;-69
2021/08/14 03:21:56;;;;;;;8.20;4.27;;;18.50;99.90;;;;;;5050717;28;20432;-69
2021/08/14 03:24:23;;;;;;;5.60;4.30;;;18.40;99.90;;;;;;5050483;28;20800;-68
2021/08/14 03:26:49;;;;;;;5.50;4.53;;;18.40;99.90;;;;;;5050636;28;20164;-70
2021/08/14 03:29:14;;;;;;;4.97;4.37;;;18.40;99.90;;;;;;5050431;28;20991;-68
2021/08/14 03:31:39;;;;;;;10.97;4.83;;;18.40;99.90;;;;;;5050696;28;20183;-69
2021/08/14 03:34:05;;;;;;;6.50;4.60;;;18.40;99.90;;;;;;5050227;28;20253;-69
2021/08/14 03:36:30;;;;;;;6.83;6.17;;;18.40;99.90;;;;;;5050641;28;20199;-67
2021/08/14 03:38:56;;;;;;;4.37;4.00;;;18.40;99.90;;;;;;5049731;28;20254;-67
2021/08/14 03:41:21;;;;;;;5.70;4.57;;;18.50;99.90;;;;;;5050402;28;20252;-67
2021/08/14 03:43:47;;;;;;;9.87;3.90;;;18.50;99.90;;;;;;5050547;28;20199;-67
2021/08/14 03:46:12;;;;;;;7.00;4.70;;;18.50;99.90;;;;;;5053434;28;20239;-66
2021/08/14 03:48:38;;;;;;;5.90;4.97;;;18.50;99.90;;;;;;5054049;28;20237;-68
2021/08/14 03:51:03;;;;;;;5.97;4.03;;;18.50;99.90;;;;;;5054112;28;20186;-68
2021/08/14 03:53:29;;;;;;;10.67;5.80;;;18.60;99.90;;;;;;5054067;28;20173;-67
2021/08/14 03:55:55;;;;;;;7.20;4.67;;;18.60;99.90;;;;;;5053554;28;20178;-68
2021/08/14 03:58:20;;;;;;;6.53;5.60;;;18.60;99.90;;;;;;5054240;28;20891;-68
2021/08/14 04:00:46;;;;;;;9.70;5.90;;;18.50;99.90;;;;;;5054077;28;20198;-68
2021/08/14 04:03:11;;;;;;;6.30;5.00;;;18.50;99.90;;;;;;5053729;28;20198;-68
2021/08/14 04:05:36;;;;;;;6.27;5.13;;;18.60;99.90;;;;;;5053778;28;20182;-68
2021/08/14 04:08:02;;;;;;;10.80;5.07;;;18.60;99.90;;;;;;5054480;28;20198;-68
2021/08/14 04:10:28;;;;;;;6.47;4.53;;;18.40;99.90;;;;;;5054333;28;20177;-68
2021/08/14 04:12:53;;;;;;;10.57;4.67;;;18.50;99.90;;;;;;5053561;28;20261;-68
2021/08/14 04:15:18;;;;;;;8.53;4.10;;;18.40;99.90;;;;;;5054128;28;20158;-67
2021/08/14 04:17:44;;;;;;;7.83;3.87;;;18.30;99.90;;;;;;5053510;28;20195;-67
2021/08/14 04:20:10;;;;;;;5.20;4.20;;;18.30;99.90;;;;;;5053739;28;20189;-68
2021/08/14 04:22:36;;;;;;;9.50;4.50;;;18.30;99.90;;;;;;5053392;28;20286;-67
2021/08/14 04:25:02;;;;;;;8.83;4.13;;;18.30;99.90;;;;;;5053700;28;20806;-68
2021/08/14 04:27:28;;;;;;;10.50;4.70;;;18.40;99.90;;;;;;5053378;28;20645;-68
2021/08/14 04:29:53;;;;;;;12.90;4.80;;;18.30;99.90;;;;;;5053763;28;20405;-68
2021/08/14 04:32:19;;;;;;;11.20;4.50;;;18.30;99.90;;;;;;5053183;28;20209;-69
2021/08/14 04:34:44;;;;;;;11.03;4.00;;;18.30;99.90;;;;;;5053584;28;20542;-68
2021/08/14 04:37:09;;;;;;;12.33;4.10;;;18.30;99.90;;;;;;5053387;28;20163;-68
2021/08/14 04:39:35;;;;;;;7.77;4.00;;;18.30;99.90;;;;;;5053353;28;20692;-67
2021/08/14 04:42:00;;;;;;;10.47;5.20;;;18.30;99.90;;;;;;5053257;28;20207;-68
2021/08/14 04:44:26;;;;;;;6.67;3.77;;;18.40;99.90;;;;;;5053078;28;20159;-68
2021/08/14 04:46:51;;;;;;;7.10;3.63;;;18.40;99.90;;;;;;5052014;28;20178;-68
2021/08/14 04:49:17;;;;;;;9.17;3.53;;;18.30;99.90;;;;;;5052892;28;20631;-68
2021/08/14 04:51:43;;;;;;;10.43;4.07;;;18.40;99.90;;;;;;5053250;28;20187;-67
2021/08/14 04:54:08;;;;;;;10.97;3.70;;;18.50;99.90;;;;;;5052970;28;20170;-68
2021/08/14 04:56:34;;;;;;;12.03;5.57;;;18.60;99.90;;;;;;5052082;28;20234;-68
2021/08/14 04:59:00;;;;;;;11.10;4.37;;;18.70;99.90;;;;;;5053066;28;20163;-68
2021/08/14 05:01:25;;;;;;;7.67;4.20;;;18.70;99.90;;;;;;5052921;28;20206;-68
2021/08/14 05:03:51;;;;;;;6.27;3.27;;;18.80;99.90;;;;;;5051139;28;20849;-69
2021/08/14 05:06:16;;;;;;;10.10;5.43;;;18.60;99.90;;;;;;5051665;28;20587;-68
2021/08/14 05:08:42;;;;;;;8.03;4.10;;;18.60;99.90;;;;;;5052640;28;20224;-68
2021/08/14 05:11:07;;;;;;;7.17;3.90;;;18.70;99.90;;;;;;5052502;28;20273;-68
2021/08/14 05:13:33;;;;;;;9.23;4.63;;;18.80;99.90;;;;;;5052671;28;20184;-68
2021/08/14 05:15:58;;;;;;;10.77;4.70;;;18.90;99.90;;;;;;5052596;28;20613;-69
2021/08/14 05:18:24;;;;;;;7.60;3.77;;;18.90;99.90;;;;;;5052601;28;20546;-69
2021/08/14 05:20:49;;;;;;;8.63;3.90;;;19.00;99.90;;;;;;5052445;28;20169;-68
2021/08/14 05:23:14;;;;;;;8.70;4.83;;;19.10;99.90;;;;;;5052294;28;20182;-68
2021/08/14 05:25:40;;;;;;;9.13;4.60;;;18.90;99.90;;;;;;5052449;28;20173;-68
2021/08/14 05:28:06;;;;;;;7.40;4.73;;;18.80;99.90;;;;;;5052303;28;20232;-67
2021/08/14 05:30:31;;;;;;;10.70;5.20;;;18.80;99.90;;;;;;5052239;28;20229;-68
2021/08/14 05:32:57;;;;;;;9.23;4.77;;;19.50;99.90;;;;;;5052020;28;20185;-68
2021/08/14 05:35:22;;;;;;;5.70;4.17;;;19.60;99.90;;;;;;5052470;28;20187;-68
2021/08/14 05:37:48;;;;;;;9.07;4.60;;;19.50;99.90;;;;;;5052252;28;20169;-67
2021/08/14 05:40:14;;;;;;;7.03;4.23;;;19.80;99.90;;;;;;5052295;28;20203;-67
2021/08/14 05:42:39;;;;;;;8.40;4.00;;;20.60;99.90;;;;;;5051769;28;20280;-67
2021/08/14 05:45:06;;;;;;;10.00;5.10;;;20.60;99.90;;;;;;5052349;28;20333;-68
2021/08/14 05:47:32;;;;;;;8.50;3.70;;;20.10;99.90;;;;;;5051397;28;20203;-68
2021/08/14 05:49:57;;;;;;;7.27;3.60;;;21.20;99.90;;;;;;5051640;28;20408;-68
2021/08/14 05:52:23;;;;;;;7.83;3.47;;;21.90;99.90;;;;;;5052278;28;20682;-69
2021/08/14 05:54:49;;;;;;;9.03;4.17;;;22.10;99.90;;;;;;5053586;28;20179;-68
2021/08/14 05:57:14;;;;;;;11.70;4.70;;;21.60;99.90;;;;;;5052502;28;20173;-68
2021/08/14 05:59:40;;;;;;;6.73;3.80;;;21.60;99.90;;;;;;5052570;28;20171;-68
2021/08/14 06:02:05;;;;;;;9.47;4.60;;;21.30;99.90;;;;;;5052447;28;20184;-69
2021/08/14 06:04:31;;;;;;;6.00;4.13;;;21.90;99.90;;;;;;5052011;28;20185;-69
2021/08/14 06:06:57;;;;;;;14.27;4.60;;;22.00;99.90;;;;;;5052221;28;20645;-69
2021/08/14 06:09:22;;;;;;;6.90;4.10;;;22.00;99.90;;;;;;5051873;28;20243;-67
2021/08/14 06:11:48;;;;;;;8.90;3.90;;;22.90;99.90;;;;;;5052212;28;20603;-69
2021/08/14 06:14:13;;;;;;;9.63;4.20;;;23.60;99.90;;;;;;5051868;28;20193;-69
2021/08/14 06:16:40;;;;;;;7.30;3.20;;;24.80;99.90;;;;;;5050988;28;20170;-68
2021/08/14 06:19:05;;;;;;;6.20;4.57;;;24.00;99.90;;;;;;5052026;28;20174;-68
2021/08/14 06:21:31;;;;;;;7.87;4.10;;;22.90;99.90;;;;;;5052008;28;20573;-68
2021/08/14 06:23:57;;;;;;;9.40;4.47;;;22.80;99.90;;;;;;5051792;28;20206;-68
2021/08/14 06:26:23;;;;;;;6.40;3.60;;;22.90;99.90;;;;;;5051896;28;20486;-68
2021/08/14 06:28:48;;;;;;;9.73;4.00;;;23.30;99.90;;;;;;5051217;28;20202;-68
2021/08/14 06:31:16;;;;;;;8.43;3.30;;;22.70;99.90;;;;;;5050915;28;20207;-68
2021/08/14 06:33:41;;;;;;;8.23;3.40;;;22.80;99.90;;;;;;5051124;28;20330;-68
2021/08/14 06:36:07;;;;;;;8.53;3.90;;;22.90;99.90;;;;;;5051166;28;20495;-68
2021/08/14 06:38:32;;;;;;;10.10;3.63;;;22.50;99.90;;;;;;5051241;28;20257;-68
2021/08/14 06:40:58;;;;;;;5.10;3.03;;;23.00;99.90;;;;;;5051051;28;20187;-67
2021/08/14 06:43:23;;;;;;;6.50;3.70;;;23.40;99.90;;;;;;5051246;28;20199;-68
2021/08/14 06:45:49;;;;;;;5.63;3.17;;;23.40;99.90;;;;;;5050944;28;20175;-68
2021/08/14 06:48:14;;;;;;;4.57;3.30;;;23.00;99.90;;;;;;5051098;28;20565;-69
2021/08/14 06:50:39;;;;;;;8.60;4.17;;;23.40;99.90;;;;;;5050950;28;20168;-68
2021/08/14 06:53:05;;;;;;;5.63;3.13;;;23.90;99.90;;;;;;5050820;28;20211;-68
2021/08/14 06:55:30;;;;;;;4.13;3.00;;;24.70;99.90;;;;;;5051137;28;20174;-69
2021/08/14 06:57:56;;;;;;;10.70;3.83;;;24.20;99.90;;;;;;5050982;28;20604;-68
2021/08/14 07:00:22;;;;;;;5.13;3.57;;;24.00;99.90;;;;;;5050994;28;20557;-67
2021/08/14 07:02:47;;;;;;;4.73;3.77;;;23.80;99.90;;;;;;5050492;28;20292;-68
2021/08/14 07:05:13;;;;;;;7.13;4.00;;;23.10;99.90;;;;;;5050940;28;20166;-68
2021/08/14 07:07:39;;;;;;;7.40;3.90;;;22.90;99.90;;;;;;5050888;28;20209;-69
2021/08/14 07:10:06;;;;;;;8.03;4.43;;;23.40;99.90;;;;;;5051234;28;20911;-68
2021/08/14 07:12:32;;;;;;;4.53;3.90;;;22.90;99.90;;;;;;5050339;28;20197;-69
2021/08/14 07:14:59;;;;;;;5.43;3.23;;;23.10;99.90;;;;;;5051054;28;20881;-69
2021/08/14 07:17:25;;;;;;;4.97;3.80;;;23.60;99.90;;;;;;5051176;28;20179;-68
2021/08/14 07:19:51;;;;;;;5.47;3.43;;;23.20;99.90;;;;;;5051963;28;20414;-69
2021/08/14 07:22:16;;;;;;;5.83;3.13;;;24.20;99.90;;;;;;5055939;28;20768;-69
2021/08/14 07:24:42;;;;;;;6.70;3.33;;;23.50;99.90;;;;;;5055882;28;20174;-68
2021/08/14 07:27:07;;;;;;;6.70;3.80;;;24.50;99.90;;;;;;5054770;28;20676;-70
2021/08/14 07:29:33;;;;;;;5.07;2.97;;;23.90;99.90;;;;;;5054648;28;20283;-68
2021/08/14 07:31:58;;;;;;;7.17;3.90;;;23.60;99.90;;;;;;5054911;28;20559;-69
2021/08/14 07:34:24;;;;;;;3.80;3.40;;;22.90;99.90;;;;;;5054390;28;20182;-69
2021/08/14 07:36:50;;;;;;;3.60;3.03;;;24.00;99.90;;;;;;5054589;28;20181;-69
2021/08/14 07:39:15;;;;;;;4.87;3.10;;;24.60;99.90;;;;;;5054515;28;20184;-68
2021/08/14 07:41:41;;;;;;;4.43;2.87;;;23.30;99.90;;;;;;5054476;28;20304;-69
2021/08/14 07:44:07;;;;;;;5.10;3.00;;;24.80;99.90;;;;;;5054103;28;20231;-68
2021/08/14 07:46:32;;;;;;;3.43;2.90;;;26.40;99.90;;;;;;5054408;28;20261;-69
2021/08/14 07:48:58;;;;;;;8.40;3.23;;;27.30;99.90;;;;;;5054171;28;20198;-68
2021/08/14 07:51:23;;;;;;;7.97;3.30;;;27.30;99.90;;;;;;5053997;28;20222;-69
2021/08/14 07:53:49;;;;;;;3.30;2.63;;;26.40;99.90;;;;;;5054220;28;20171;-69
2021/08/14 07:56:14;;;;;;;4.27;2.80;;;25.90;99.90;;;;;;5054160;28;20660;-68
2021/08/14 07:58:39;;;;;;;6.33;3.20;;;27.40;99.90;;;;;;5054047;28;20171;-69
2021/08/14 08:01:05;;;;;;;5.33;3.53;;;26.50;99.90;;;;;;5053910;28;20278;-69
2021/08/14 08:03:30;;;;;;;4.33;2.60;;;26.20;99.90;;;;;;5053825;28;20193;-69
2021/08/14 08:05:56;;;;;;;5.73;2.30;;;27.20;99.90;;;;;;5053944;28;20238;-69
2021/08/14 08:08:21;;;;;;;7.93;2.70;;;27.30;99.90;;;;;;5053911;28;20607;-68
2021/08/14 08:10:47;;;;;;;5.37;2.33;;;28.20;99.80;;;;;;5053895;28;20225;-69
2021/08/14 08:13:13;;;;;;;3.83;2.90;;;28.20;99.90;;;;;;5053965;28;20163;-69
2021/08/14 08:15:38;;;;;;;4.03;2.50;;;26.70;99.90;;;;;;5051849;28;20936;-68
2021/08/14 08:18:04;;;;;;;3.30;2.63;;;26.70;99.90;;;;;;5047778;28;20725;-69
2021/08/14 08:20:32;;;;;;;6.37;3.50;;;27.70;99.90;;;;;;5053228;28;20167;-69
2021/08/14 08:22:58;;;;;;;5.10;2.53;;;28.20;97.50;;;;;;5053387;28;20214;-69
2021/08/14 08:25:24;;;;;;;3.40;2.90;;;27.20;98.20;;;;;;5053930;28;20440;-67
2021/08/14 08:27:53;;;;;;;6.13;2.80;;;26.50;99.70;;;;;;5053266;28;20191;-71
2021/08/14 08:30:20;;;;;;;4.17;3.17;;;26.80;99.10;;;;;;5053326;28;20401;-68
2021/08/14 08:32:46;;;;;;;4.83;3.13;;;27.40;99.00;;;;;;5047198;28;20505;-70
2021/08/14 08:35:13;;;;;;;5.63;2.90;;;28.00;98.10;;;;;;5052112;28;20402;-70
2021/08/14 08:37:39;;;;;;;7.80;2.77;;;27.10;97.80;;;;;;5037530;28;20229;-69
2021/08/14 08:40:06;;;;;;;3.70;2.47;;;27.30;99.80;;;;;;5034084;28;20452;-68
2021/08/14 08:42:31;;;;;;;4.03;2.77;;;27.60;98.10;;;;;;5033362;28;20429;-68
2021/08/14 08:44:58;;;;;;;4.70;2.40;;;27.40;98.10;;;;;;5033948;28;20426;-69
2021/08/14 08:47:25;;;;;;;6.57;3.30;;;28.00;97.10;;;;;;5033171;28;20183;-69
2021/08/14 08:49:56;;;;;;;3.90;3.00;;;26.20;97.60;;;;;;5034516;28;20501;-69
2021/08/14 08:52:23;;;;;;;4.47;2.60;;;25.80;99.20;;;;;;5033366;28;21011;-70
2021/08/14 08:54:49;;;;;;;4.10;2.67;;;26.90;99.20;;;;;;5033106;28;20415;-70
2021/08/14 08:57:15;;;;;;;4.03;3.30;;;27.70;98.00;;;;;;5031987;28;20882;-69
2021/08/14 08:59:43;;;;;;;4.40;2.70;;;27.40;96.20;;;;;;5033224;28;20410;-68
2021/08/14 09:02:27;;;;;;;4.87;2.50;;;27.40;97.20;;;;;;5032051;28;20179;-70
2021/08/14 09:05:17;;;;;;;7.10;2.80;;;27.50;95.30;;;;;;5032313;28;20406;-69
2021/08/14 09:07:47;;;;;;;4.33;2.80;;;27.20;96.70;;;;;;5034498;28;21028;-69
2021/08/14 09:10:24;;;;;;;4.53;2.80;;;27.30;97.50;;;;;;5032013;28;20897;-70
2021/08/14 09:12:50;;;;;;;5.80;2.70;;;27.00;96.70;;;;;;5060391;28;20802;-69
2021/08/14 09:15:27;;;;;;;5.10;2.50;;;27.80;96.20;;;;;;5051762;28;20417;-69
2021/08/14 09:18:08;;;;;;;6.70;3.50;;;26.80;94.20;;;;;;5072795;28;20420;-70
2021/08/14 09:20:52;;;;;;;3.00;2.60;;;26.80;97.60;;;;;;5062269;28;20451;-70
2021/08/14 09:23:18;;;;;;;3.43;2.30;;;27.20;95.20;;;;;;5053034;28;20908;-69
2021/08/14 09:25:55;;;;;;;12.10;3.57;;;27.10;95.60;;;;;;5052656;28;20409;-70
2021/08/14 09:28:37;;;;;;;3.73;2.20;;;27.30;96.20;;;;;;5056164;28;20182;-70
2021/08/14 09:31:04;;;;;;;3.30;2.47;;;27.40;96.80;;;;;;5046595;28;20436;-68
2021/08/14 09:33:32;;;;;;;4.10;2.53;;;27.70;94.50;;;;;;5043386;28;20417;-68
2021/08/14 09:35:59;;;;;;;3.13;2.23;;;27.50;96.00;;;;;;5032482;28;20501;-68
2021/08/14 09:38:40;;;;;;;7.73;3.20;;;27.80;95.00;;;;;;5032334;28;20433;-68
2021/08/14 09:41:23;;;;;;;3.03;2.73;;;28.30;94.10;;;;;;5041119;28;20511;-69
2021/08/14 09:43:51;;;;;;;5.60;3.67;;;26.90;95.00;;;;;;5044649;28;20904;-68
2021/08/14 09:46:17;;;;;;;4.63;3.60;;;26.60;96.20;;;;;;5040233;28;20754;-68
2021/08/14 09:48:52;;;;;;;6.40;3.07;;;27.30;95.70;;;;;;5032434;28;20491;-68
2021/08/14 09:51:31;;;;;;;5.07;2.73;;;26.60;95.90;;;;;;5050383;28;20224;-68
2021/08/14 09:54:00;;;;;;;8.27;3.83;;;26.20;97.30;;;;;;5038751;28;20417;-68
2021/08/14 09:56:27;;;;;;;4.60;2.93;;;26.00;98.00;;;;;;5041948;28;20787;-67
2021/08/14 09:58:53;;;;;;;3.63;2.77;;;26.60;97.20;;;;;;5031677;28;20429;-68
2021/08/14 10:01:20;;;;;;;3.47;2.50;;;26.90;94.50;;;;;;5031605;28;20780;-68
2021/08/14 10:03:46;;;;;;;4.30;2.87;;;27.00;95.20;;;;;;5031229;28;20446;-68
2021/08/14 10:06:13;;;;;;;4.93;3.67;;;26.00;94.50;;;;;;5039769;28;20508;-68
2021/08/14 10:08:40;;;;;;;5.00;2.67;;;25.80;96.40;;;;;;5047817;28;20465;-67
2021/08/14 10:11:11;;;;;;;5.80;3.03;;;26.00;96.20;;;;;;5046866;28;20438;-67
2021/08/14 10:13:41;;;;;;;3.83;2.60;;;25.80;95.80;;;;;;5041709;28;20416;-69
2021/08/14 10:16:08;;;;;;;5.47;3.10;;;26.50;96.20;;;;;;5051768;28;20420;-70
2021/08/14 10:18:35;;;;;;;4.83;2.93;;;26.90;95.90;;;;;;5051298;28;20935;-68
2021/08/14 10:21:00;;;;;;;5.87;3.20;;;26.70;95.80;;;;;;5065974;28;20882;-68
2021/08/14 10:23:28;;;;;;;5.97;3.93;;;26.20;96.30;;;;;;5031363;28;20513;-67
2021/08/14 10:26:09;;;;;;;6.17;2.97;;;26.10;96.90;;;;;;5031444;28;20261;-69
2021/08/14 10:28:52;;;;;;;7.13;3.50;;;25.60;97.00;;;;;;5031008;28;20461;-67
2021/08/14 10:31:41;;;;;;;5.57;2.83;;;25.70;96.70;;;;;;5028862;28;20546;-68
2021/08/14 10:34:13;;;;;;;4.67;3.33;;;25.40;97.00;;;;;;5035585;28;20595;-69
2021/08/14 10:36:39;;;;;;;3.30;2.73;;;24.90;98.40;;;;;;5049859;28;20437;-69
2021/08/14 10:39:25;;;;;;;5.17;3.37;;;25.40;97.90;;;;;;5038981;28;21020;-70
2021/08/14 10:41:57;;;;;;;5.13;3.23;;;25.60;97.30;;;;;;5048211;28;21132;-72
2021/08/14 10:44:46;;;;;;;4.57;3.00;;;25.40;97.30;;;;;;5050828;28;20932;-73
2021/08/14 10:47:33;;;;;;;5.73;2.93;;;25.50;97.50;;;;;;5051339;28;20561;-68
2021/08/14 10:50:01;;;;;;;6.53;3.97;;;25.50;96.90;;;;;;5035238;28;20841;-67
2021/08/14 10:52:37;;;;;;;5.57;4.47;;;25.80;97.40;;;;;;5040638;28;20495;-66
2021/08/14 10:55:08;;;;;;;4.10;3.00;;;25.70;97.30;;;;;;5036421;28;20557;-67
2021/08/14 10:57:52;;;;;;;4.03;2.90;;;25.50;96.50;;;;;;5041435;28;20446;-67
2021/08/14 11:00:27;;;;;;;3.43;2.73;;;25.50;96.20;;;;;;5031614;28;20485;-67
2021/08/14 11:03:00;;;;;;;5.10;2.43;;;25.40;96.60;;;;;;5030781;28;20455;-67
2021/08/14 11:05:26;;;;;;;4.63;2.97;;;25.50;96.60;;;;;;5036636;28;20415;-67
2021/08/14 11:07:52;;;;;;;4.80;2.90;;;25.50;96.10;;;;;;5039811;28;20540;-67
2021/08/14 11:10:33;;;;;;;3.40;2.33;;;25.40;97.00;;;;;;5045271;28;20414;-67
2021/08/14 11:12:58;;;;;;;4.70;3.07;;;25.30;96.90;;;;;;5047667;28;20240;-69
2021/08/14 11:15:43;;;;;;;4.20;2.60;;;26.00;97.20;;;;;;5045732;28;20972;-67
2021/08/14 11:18:08;;;;;;;6.20;3.30;;;26.00;95.60;;;;;;5030980;28;20203;-67
2021/08/14 11:20:40;;;;;;;3.27;2.67;;;25.80;95.80;;;;;;5030842;28;20462;-67
2021/08/14 11:23:27;;;;;;;8.13;3.20;;;25.80;96.10;;;;;;5029526;28;20663;-68
2021/08/14 11:25:53;;;;;;;4.97;2.80;;;25.80;95.70;;;;;;5031479;28;20956;-67
2021/08/14 11:28:22;;;;;;;5.20;2.83;;;25.80;95.60;;;;;;5029982;28;20537;-68
2021/08/14 11:31:04;;;;;;;4.67;2.43;;;25.80;96.20;;;;;;5029765;28;20432;-68
2021/08/14 11:33:33;;;;;;;5.90;2.83;;;25.90;96.20;;;;;;5029407;28;20425;-67
2021/08/14 11:36:08;;;;;;;5.23;2.67;;;26.00;95.80;;;;;;5045133;28;20416;-68
2021/08/14 11:38:36;;;;;;;4.10;3.00;;;25.90;95.70;;;;;;5043445;28;20473;-68
2021/08/14 11:41:09;;;;;;;3.70;2.73;;;26.10;95.40;;;;;;5042093;28;20435;-68
2021/08/14 11:43:40;;;;;;;4.80;2.70;;;26.00;94.90;;;;;;5037085;28;20452;-69
2021/08/14 11:46:06;;;;;;;2.87;2.67;;;26.10;95.10;;;;;;5031276;28;20422;-70
2021/08/14 11:48:40;;;;;;;6.30;3.00;;;25.80;94.70;;;;;;5047232;28;20832;-67
2021/08/14 11:51:15;;;;;;;2.93;2.60;;;25.70;94.90;;;;;;5030785;28;20514;-67
2021/08/14 11:53:41;;;;;;;3.83;2.97;;;25.60;93.90;;;;;;5030698;28;20413;-68
2021/08/14 11:56:08;;;;;;;4.07;2.90;;;25.70;94.60;;;;;;5030443;28;20425;-68
2021/08/14 11:58:33;;;;;;;5.53;3.00;;;25.80;95.20;;;;;;5030762;28;20179;-68
2021/08/14 12:00:59;;;;;;;3.47;2.67;;;25.70;94.30;;;;;;5030585;28;20435;-66
2021/08/14 12:03:25;;;;;;;3.63;2.57;;;25.90;93.60;;;;;;5029523;28;20201;-66
2021/08/14 12:05:52;;;;;;;3.30;2.50;;;25.80;93.70;;;;;;5039143;28;20236;-67
2021/08/14 12:08:38;;;;;;;2.60;2.40;;;25.80;93.90;;;;;;5039194;28;20472;-67
2021/08/14 12:11:07;;;;;;;4.30;2.90;;;26.10;93.60;;;;;;5036078;28;20447;-66
2021/08/14 12:13:37;;;;;;;6.03;3.00;;;26.00;92.90;;;;;;5052675;28;20420;-69
2021/08/14 12:16:17;;;;;;;2.63;2.43;;;26.20;93.30;;;;;;5041962;28;20790;-68
2021/08/14 12:18:48;;;;;;;3.20;2.70;;;26.30;93.10;;;;;;5039102;28;20833;-69
2021/08/14 12:21:15;;;;;;;5.17;2.93;;;26.30;92.50;;;;;;5032305;28;21012;-68
2021/08/14 12:23:41;;;;;;;5.63;2.60;;;26.50;92.50;;;;;;5033584;28;20999;-68
2021/08/14 12:26:10;;;;;;;4.90;3.20;;;26.60;90.90;;;;;;5033752;28;20456;-68
2021/08/14 12:28:38;;;;;;;3.30;2.33;;;26.30;91.10;;;;;;5033538;28;20451;-68
2021/08/14 12:31:18;;;;;;;5.47;3.17;;;26.20;90.60;;;;;;5033638;28;20963;-68
2021/08/14 12:33:51;;;;;;;5.50;2.93;;;26.30;91.00;;;;;;5033123;28;20544;-68
2021/08/14 12:36:39;;;;;;;5.50;2.70;;;26.10;91.10;;;;;;5033387;28;20423;-70
2021/08/14 12:39:08;;;;;;;3.87;2.77;;;26.20;91.20;;;;;;5033242;28;20433;-69
2021/08/14 12:41:41;;;;;;;7.00;2.50;;;26.20;91.20;;;;;;5046921;28;20451;-69
2021/08/14 12:44:09;;;;;;;2.97;2.40;;;26.00;91.10;;;;;;5033441;28;20464;-71
2021/08/14 12:46:36;;;;;;;6.10;2.97;;;26.30;91.40;;;;;;5037111;28;20439;-69
2021/08/14 12:49:22;;;;;;;4.70;2.83;;;26.50;91.10;;;;;;5044044;28;20460;-68